METAR EPSY 090030Z VRB03KT 9000 MIFG NSC 07/07 Q1015=